sensor_id;sensor_type;location;lat;lon;timestamp;temperature;humidity
9973;DHT22;5027;53.560;10.062;2024-03-07T00:00:45;11.20;99.90
9973;DHT22;5027;53.560;10.062;2024-03-07T00:03:12;11.20;99.90
9973;DHT22;5027;53.560;10.062;2024-03-07T00:05:39;11.20;99.90
9973;DHT22;5027;53.560;10.062;2024-03-07T00:08:08;11.10;99.90
9973;DHT22;5027;53.560;10.062;2024-03-07T00:10:36;11.10;99.90
9973;DHT22;5027;53.560;10.062;2024-03-07T00:13:03;11.20;99.90
9973;DHT22;5027;53.560;10.062;2024-03-07T00:15:30;11.20;99.90
9973;DHT22;5027;53.560;10.062;2024-03-07T00:17:57;11.20;99.90
9973;DHT22;5027;53.560;10.062;2024-03-07T00:20:24;11.30;99.90
9973;DHT22;5027;53.560;10.062;2024-03-07T00:22:50;11.40;99.80
9973;DHT22;5027;53.560;10.062;2024-03-07T00:25:17;11.40;99.90
9973;DHT22;5027;53.560;10.062;2024-03-07T00:27:50;11.30;99.90
9973;DHT22;5027;53.560;10.062;2024-03-07T00:30:21;11.30;99.90
9973;DHT22;5027;53.560;10.062;2024-03-07T00:32:51;11.20;99.90
9973;DHT22;5027;53.560;10.062;2024-03-07T00:35:18;11.20;99.90
9973;DHT22;5027;53.560;10.062;2024-03-07T00:37:47;11.30;99.90
9973;DHT22;5027;53.560;10.062;2024-03-07T00:40:14;11.30;99.90
9973;DHT22;5027;53.560;10.062;2024-03-07T00:42:41;11.30;99.90
9973;DHT22;5027;53.560;10.062;2024-03-07T00:45:07;11.40;99.90
9973;DHT22;5027;53.560;10.062;2024-03-07T00:47:35;11.40;99.90
9973;DHT22;5027;53.560;10.062;2024-03-07T00:50:05;11.40;99.90
9973;DHT22;5027;53.560;10.062;2024-03-07T00:52:32;11.30;99.90
9973;DHT22;5027;53.560;10.062;2024-03-07T00:54:59;11.50;99.90
9973;DHT22;5027;53.560;10.062;2024-03-07T00:57:26;11.50;99.90
9973;DHT22;5027;53.560;10.062;2024-03-07T00:59:52;11.40;99.90
9973;DHT22;5027;53.560;10.062;2024-03-07T01:02:19;11.30;99.90
9973;DHT22;5027;53.560;10.062;2024-03-07T01:04:46;11.30;99.90
9973;DHT22;5027;53.560;10.062;2024-03-07T01:07:13;11.30;99.90
9973;DHT22;5027;53.560;10.062;2024-03-07T01:09:40;11.30;99.90
9973;DHT22;5027;53.560;10.062;2024-03-07T01:12:07;11.30;99.90
9973;DHT22;5027;53.560;10.062;2024-03-07T01:14:33;11.30;99.90
9973;DHT22;5027;53.560;10.062;2024-03-07T01:17:02;11.30;99.90
9973;DHT22;5027;53.560;10.062;2024-03-07T01:19:29;11.30;99.90
9973;DHT22;5027;53.560;10.062;2024-03-07T01:21:58;11.40;99.90
9973;DHT22;5027;53.560;10.062;2024-03-07T01:24:24;11.40;99.90
9973;DHT22;5027;53.560;10.062;2024-03-07T01:26:51;11.40;99.90
9973;DHT22;5027;53.560;10.062;2024-03-07T01:29:18;11.30;99.90
9973;DHT22;5027;53.560;10.062;2024-03-07T01:31:45;11.40;99.90
9973;DHT22;5027;53.560;10.062;2024-03-07T01:34:12;11.40;99.90
9973;DHT22;5027;53.560;10.062;2024-03-07T01:36:39;11.40;99.90
9973;DHT22;5027;53.560;10.062;2024-03-07T01:39:08;11.30;99.90
9973;DHT22;5027;53.560;10.062;2024-03-07T01:41:37;11.30;99.90
9973;DHT22;5027;53.560;10.062;2024-03-07T01:44:04;11.30;99.90
9973;DHT22;5027;53.560;10.062;2024-03-07T01:46:30;11.30;99.90
9973;DHT22;5027;53.560;10.062;2024-03-07T01:48:59;11.30;99.90
9973;DHT22;5027;53.560;10.062;2024-03-07T01:51:26;11.30;99.90
9973;DHT22;5027;53.560;10.062;2024-03-07T01:53:53;11.30;99.90
9973;DHT22;5027;53.560;10.062;2024-03-07T01:56:21;11.30;99.90
9973;DHT22;5027;53.560;10.062;2024-03-07T01:58:49;11.30;99.90
9973;DHT22;5027;53.560;10.062;2024-03-07T02:01:18;11.30;99.90
9973;DHT22;5027;53.560;10.062;2024-03-07T02:03:45;11.30;99.90
9973;DHT22;5027;53.560;10.062;2024-03-07T02:06:12;11.30;99.90
9973;DHT22;5027;53.560;10.062;2024-03-07T02:08:39;11.30;99.90
9973;DHT22;5027;53.560;10.062;2024-03-07T02:11:06;11.30;99.90
9973;DHT22;5027;53.560;10.062;2024-03-07T02:13:33;11.20;99.90
9973;DHT22;5027;53.560;10.062;2024-03-07T02:15:59;11.30;99.90
9973;DHT22;5027;53.560;10.062;2024-03-07T02:18:26;11.30;99.90
9973;DHT22;5027;53.560;10.062;2024-03-07T02:20:53;11.30;99.90
9973;DHT22;5027;53.560;10.062;2024-03-07T02:23:21;11.30;99.90
9973;DHT22;5027;53.560;10.062;2024-03-07T02:25:48;11.30;99.90
9973;DHT22;5027;53.560;10.062;2024-03-07T02:28:15;11.30;99.90
9973;DHT22;5027;53.560;10.062;2024-03-07T02:30:41;11.30;99.90
9973;DHT22;5027;53.560;10.062;2024-03-07T02:33:08;11.30;99.90
9973;DHT22;5027;53.560;10.062;2024-03-07T02:35:36;11.30;99.90
9973;DHT22;5027;53.560;10.062;2024-03-07T02:38:03;11.30;99.90
9973;DHT22;5027;53.560;10.062;2024-03-07T02:40:31;11.30;99.90
9973;DHT22;5027;53.560;10.062;2024-03-07T02:42:58;11.40;99.90
9973;DHT22;5027;53.560;10.062;2024-03-07T02:45:25;11.40;99.90
9973;DHT22;5027;53.560;10.062;2024-03-07T02:47:52;11.30;99.90
9973;DHT22;5027;53.560;10.062;2024-03-07T02:50:20;11.30;99.90
9973;DHT22;5027;53.560;10.062;2024-03-07T02:52:49;11.40;99.90
9973;DHT22;5027;53.560;10.062;2024-03-07T02:55:16;11.20;99.90
9973;DHT22;5027;53.560;10.062;2024-03-07T02:57:43;11.30;99.90
9973;DHT22;5027;53.560;10.062;2024-03-07T03:00:10;11.20;99.90
9973;DHT22;5027;53.560;10.062;2024-03-07T03:02:47;11.30;99.90
9973;DHT22;5027;53.560;10.062;2024-03-07T03:05:15;11.30;99.90
9973;DHT22;5027;53.560;10.062;2024-03-07T03:07:42;11.40;99.90
9973;DHT22;5027;53.560;10.062;2024-03-07T03:10:09;11.30;99.90
9973;DHT22;5027;53.560;10.062;2024-03-07T03:12:39;11.30;99.90
9973;DHT22;5027;53.560;10.062;2024-03-07T03:15:07;11.30;99.90
9973;DHT22;5027;53.560;10.062;2024-03-07T03:17:36;11.30;99.90
9973;DHT22;5027;53.560;10.062;2024-03-07T03:20:03;11.30;99.90
9973;DHT22;5027;53.560;10.062;2024-03-07T03:22:41;11.30;99.90
9973;DHT22;5027;53.560;10.062;2024-03-07T03:25:10;11.30;99.90
9973;DHT22;5027;53.560;10.062;2024-03-07T03:27:37;11.30;99.90
9973;DHT22;5027;53.560;10.062;2024-03-07T03:30:05;11.30;99.90
9973;DHT22;5027;53.560;10.062;2024-03-07T03:32:33;11.30;99.90
9973;DHT22;5027;53.560;10.062;2024-03-07T03:35:00;11.20;99.90
9973;DHT22;5027;53.560;10.062;2024-03-07T03:37:26;11.20;99.90
9973;DHT22;5027;53.560;10.062;2024-03-07T03:39:53;11.30;99.90
9973;DHT22;5027;53.560;10.062;2024-03-07T03:42:20;11.20;99.90
9973;DHT22;5027;53.560;10.062;2024-03-07T03:44:47;11.30;99.90
9973;DHT22;5027;53.560;10.062;2024-03-07T03:47:14;11.20;99.90
9973;DHT22;5027;53.560;10.062;2024-03-07T03:49:41;11.40;99.90
9973;DHT22;5027;53.560;10.062;2024-03-07T03:52:08;11.30;99.90
9973;DHT22;5027;53.560;10.062;2024-03-07T03:54:35;11.20;99.90
9973;DHT22;5027;53.560;10.062;2024-03-07T03:57:01;11.30;99.90
9973;DHT22;5027;53.560;10.062;2024-03-07T03:59:29;11.30;99.70
9973;DHT22;5027;53.560;10.062;2024-03-07T04:01:57;11.20;99.90
9973;DHT22;5027;53.560;10.062;2024-03-07T04:04:24;11.20;99.90
9973;DHT22;5027;53.560;10.062;2024-03-07T04:06:52;11.30;99.90
9973;DHT22;5027;53.560;10.062;2024-03-07T04:09:19;11.30;99.90
9973;DHT22;5027;53.560;10.062;2024-03-07T04:11:46;11.40;99.70
9973;DHT22;5027;53.560;10.062;2024-03-07T04:14:13;11.30;99.60
9973;DHT22;5027;53.560;10.062;2024-03-07T04:16:40;11.10;99.60
9973;DHT22;5027;53.560;10.062;2024-03-07T04:19:07;11.20;99.70
9973;DHT22;5027;53.560;10.062;2024-03-07T04:21:35;11.20;99.70
9973;DHT22;5027;53.560;10.062;2024-03-07T04:24:03;11.20;99.50
9973;DHT22;5027;53.560;10.062;2024-03-07T04:26:29;11.20;99.50
9973;DHT22;5027;53.560;10.062;2024-03-07T04:28:56;11.20;99.50
9973;DHT22;5027;53.560;10.062;2024-03-07T04:31:24;11.20;99.40
9973;DHT22;5027;53.560;10.062;2024-03-07T04:33:51;11.20;99.50
9973;DHT22;5027;53.560;10.062;2024-03-07T04:36:17;11.20;99.20
9973;DHT22;5027;53.560;10.062;2024-03-07T04:38:44;11.10;99.10
9973;DHT22;5027;53.560;10.062;2024-03-07T04:41:12;11.00;99.10
9973;DHT22;5027;53.560;10.062;2024-03-07T04:43:38;11.00;98.80
9973;DHT22;5027;53.560;10.062;2024-03-07T04:46:05;11.00;99.00
9973;DHT22;5027;53.560;10.062;2024-03-07T04:48:33;10.90;99.00
9973;DHT22;5027;53.560;10.062;2024-03-07T04:51:00;10.90;99.00
9973;DHT22;5027;53.560;10.062;2024-03-07T04:53:27;10.90;99.10
9973;DHT22;5027;53.560;10.062;2024-03-07T04:55:54;11.00;98.80
9973;DHT22;5027;53.560;10.062;2024-03-07T04:58:21;11.00;98.60
9973;DHT22;5027;53.560;10.062;2024-03-07T05:00:48;11.00;98.50
9973;DHT22;5027;53.560;10.062;2024-03-07T05:03:15;11.00;98.20
9973;DHT22;5027;53.560;10.062;2024-03-07T05:05:42;10.90;98.20
9973;DHT22;5027;53.560;10.062;2024-03-07T05:08:09;11.10;97.90
9973;DHT22;5027;53.560;10.062;2024-03-07T05:10:36;11.00;97.90
9973;DHT22;5027;53.560;10.062;2024-03-07T05:13:03;10.90;97.90
9973;DHT22;5027;53.560;10.062;2024-03-07T05:15:31;10.80;98.00
9973;DHT22;5027;53.560;10.062;2024-03-07T05:17:58;10.80;98.20
9973;DHT22;5027;53.560;10.062;2024-03-07T05:20:25;10.90;97.90
9973;DHT22;5027;53.560;10.062;2024-03-07T05:22:55;10.90;97.60
9973;DHT22;5027;53.560;10.062;2024-03-07T05:25:21;10.80;98.00
9973;DHT22;5027;53.560;10.062;2024-03-07T05:27:49;10.90;97.70
9973;DHT22;5027;53.560;10.062;2024-03-07T05:30:19;10.90;97.60
9973;DHT22;5027;53.560;10.062;2024-03-07T05:32:48;10.80;97.40
9973;DHT22;5027;53.560;10.062;2024-03-07T05:35:16;10.80;97.50
9973;DHT22;5027;53.560;10.062;2024-03-07T05:37:46;10.80;97.40
9973;DHT22;5027;53.560;10.062;2024-03-07T05:40:14;10.70;97.20
9973;DHT22;5027;53.560;10.062;2024-03-07T05:42:40;10.90;97.60
9973;DHT22;5027;53.560;10.062;2024-03-07T05:45:08;11.60;97.80
9973;DHT22;5027;53.560;10.062;2024-03-07T05:47:35;11.30;96.10
9973;DHT22;5027;53.560;10.062;2024-03-07T05:50:02;11.10;96.00
9973;DHT22;5027;53.560;10.062;2024-03-07T05:52:30;11.00;96.30
9973;DHT22;5027;53.560;10.062;2024-03-07T05:54:57;10.80;96.20
9973;DHT22;5027;53.560;10.062;2024-03-07T05:57:23;10.80;96.50
9973;DHT22;5027;53.560;10.062;2024-03-07T05:59:50;10.80;96.60
9973;DHT22;5027;53.560;10.062;2024-03-07T06:02:17;10.90;96.00
9973;DHT22;5027;53.560;10.062;2024-03-07T06:04:43;10.70;96.20
9973;DHT22;5027;53.560;10.062;2024-03-07T06:07:10;10.70;96.40
9973;DHT22;5027;53.560;10.062;2024-03-07T06:09:37;10.60;96.40
9973;DHT22;5027;53.560;10.062;2024-03-07T06:12:04;10.70;96.40
9973;DHT22;5027;53.560;10.062;2024-03-07T06:14:48;10.60;96.30
9973;DHT22;5027;53.560;10.062;2024-03-07T06:17:16;10.60;96.40
9973;DHT22;5027;53.560;10.062;2024-03-07T06:19:45;10.60;96.40
9973;DHT22;5027;53.560;10.062;2024-03-07T06:22:12;10.60;96.50
9973;DHT22;5027;53.560;10.062;2024-03-07T06:24:39;10.60;96.50
9973;DHT22;5027;53.560;10.062;2024-03-07T06:27:06;10.70;96.70
9973;DHT22;5027;53.560;10.062;2024-03-07T06:29:42;10.70;96.40
9973;DHT22;5027;53.560;10.062;2024-03-07T06:32:09;10.80;96.00
9973;DHT22;5027;53.560;10.062;2024-03-07T06:34:36;10.80;96.30
9973;DHT22;5027;53.560;10.062;2024-03-07T06:37:03;10.80;96.20
9973;DHT22;5027;53.560;10.062;2024-03-07T06:39:30;10.80;96.10
9973;DHT22;5027;53.560;10.062;2024-03-07T06:41:56;10.80;95.90
9973;DHT22;5027;53.560;10.062;2024-03-07T06:44:23;10.70;96.00
9973;DHT22;5027;53.560;10.062;2024-03-07T06:46:50;10.80;96.20
9973;DHT22;5027;53.560;10.062;2024-03-07T06:49:17;10.70;95.90
9973;DHT22;5027;53.560;10.062;2024-03-07T06:51:44;10.70;95.60
9973;DHT22;5027;53.560;10.062;2024-03-07T06:54:10;10.70;95.70
9973;DHT22;5027;53.560;10.062;2024-03-07T06:56:37;10.70;95.50
9973;DHT22;5027;53.560;10.062;2024-03-07T06:59:06;10.50;95.80
9973;DHT22;5027;53.560;10.062;2024-03-07T07:01:33;10.50;95.70
9973;DHT22;5027;53.560;10.062;2024-03-07T07:04:01;10.50;96.00
9973;DHT22;5027;53.560;10.062;2024-03-07T07:06:30;10.50;95.80
9973;DHT22;5027;53.560;10.062;2024-03-07T07:08:57;10.50;95.70
9973;DHT22;5027;53.560;10.062;2024-03-07T07:11:25;10.50;95.80
9973;DHT22;5027;53.560;10.062;2024-03-07T07:13:59;10.60;95.80
9973;DHT22;5027;53.560;10.062;2024-03-07T07:16:25;10.70;95.60
9973;DHT22;5027;53.560;10.062;2024-03-07T07:18:53;10.70;95.90
9973;DHT22;5027;53.560;10.062;2024-03-07T07:21:20;10.70;95.20
9973;DHT22;5027;53.560;10.062;2024-03-07T07:23:47;10.60;95.40
9973;DHT22;5027;53.560;10.062;2024-03-07T07:26:14;10.70;95.30
9973;DHT22;5027;53.560;10.062;2024-03-07T07:28:41;10.70;94.90
9973;DHT22;5027;53.560;10.062;2024-03-07T07:31:08;10.60;95.20
9973;DHT22;5027;53.560;10.062;2024-03-07T07:33:35;10.60;95.20
9973;DHT22;5027;53.560;10.062;2024-03-07T07:36:03;10.60;95.40
9973;DHT22;5027;53.560;10.062;2024-03-07T07:38:30;10.50;94.90
9973;DHT22;5027;53.560;10.062;2024-03-07T07:40:58;10.50;95.20
9973;DHT22;5027;53.560;10.062;2024-03-07T07:43:25;10.50;95.40
9973;DHT22;5027;53.560;10.062;2024-03-07T07:46:07;10.60;95.30
9973;DHT22;5027;53.560;10.062;2024-03-07T07:48:34;10.50;95.40
9973;DHT22;5027;53.560;10.062;2024-03-07T07:51:01;10.50;95.20
9973;DHT22;5027;53.560;10.062;2024-03-07T07:53:28;10.60;95.40
9973;DHT22;5027;53.560;10.062;2024-03-07T07:55:54;10.70;95.00
9973;DHT22;5027;53.560;10.062;2024-03-07T07:58:21;10.60;94.60
9973;DHT22;5027;53.560;10.062;2024-03-07T08:00:48;10.70;94.70
9973;DHT22;5027;53.560;10.062;2024-03-07T08:03:16;10.60;94.90
9973;DHT22;5027;53.560;10.062;2024-03-07T08:05:44;10.60;94.70
9973;DHT22;5027;53.560;10.062;2024-03-07T08:08:14;10.50;94.80
9973;DHT22;5027;53.560;10.062;2024-03-07T08:10:43;10.40;94.80
9973;DHT22;5027;53.560;10.062;2024-03-07T08:13:12;10.50;94.90
9973;DHT22;5027;53.560;10.062;2024-03-07T08:15:40;10.50;94.70
9973;DHT22;5027;53.560;10.062;2024-03-07T08:18:07;10.50;94.60
9973;DHT22;5027;53.560;10.062;2024-03-07T08:20:38;10.50;94.50
9973;DHT22;5027;53.560;10.062;2024-03-07T08:23:07;10.50;94.20
9973;DHT22;5027;53.560;10.062;2024-03-07T08:25:34;10.60;94.20
9973;DHT22;5027;53.560;10.062;2024-03-07T08:28:01;10.50;94.10
9973;DHT22;5027;53.560;10.062;2024-03-07T08:30:27;10.60;94.40
9973;DHT22;5027;53.560;10.062;2024-03-07T08:32:56;10.50;94.60
9973;DHT22;5027;53.560;10.062;2024-03-07T08:35:24;10.60;94.70
9973;DHT22;5027;53.560;10.062;2024-03-07T08:37:52;10.60;94.60
9973;DHT22;5027;53.560;10.062;2024-03-07T08:40:22;10.60;94.80
9973;DHT22;5027;53.560;10.062;2024-03-07T08:42:54;10.60;94.60
9973;DHT22;5027;53.560;10.062;2024-03-07T08:45:22;10.50;94.60
9973;DHT22;5027;53.560;10.062;2024-03-07T08:47:51;10.40;94.70
9973;DHT22;5027;53.560;10.062;2024-03-07T08:50:18;10.60;94.50
9973;DHT22;5027;53.560;10.062;2024-03-07T08:52:46;10.70;94.60
9973;DHT22;5027;53.560;10.062;2024-03-07T08:55:16;10.60;94.50
9973;DHT22;5027;53.560;10.062;2024-03-07T08:57:44;10.70;94.30
9973;DHT22;5027;53.560;10.062;2024-03-07T09:00:16;10.70;94.70
9973;DHT22;5027;53.560;10.062;2024-03-07T09:02:58;10.50;94.70
9973;DHT22;5027;53.560;10.062;2024-03-07T09:05:28;10.60;94.80
9973;DHT22;5027;53.560;10.062;2024-03-07T09:07:55;10.70;94.90
9973;DHT22;5027;53.560;10.062;2024-03-07T09:10:22;10.70;95.40
9973;DHT22;5027;53.560;10.062;2024-03-07T09:12:52;10.60;94.70
9973;DHT22;5027;53.560;10.062;2024-03-07T09:15:20;10.50;95.20
9973;DHT22;5027;53.560;10.062;2024-03-07T09:17:49;10.70;95.30
9973;DHT22;5027;53.560;10.062;2024-03-07T09:20:16;10.70;95.20
9973;DHT22;5027;53.560;10.062;2024-03-07T09:22:44;10.60;95.40
9973;DHT22;5027;53.560;10.062;2024-03-07T09:25:11;10.60;95.60
9973;DHT22;5027;53.560;10.062;2024-03-07T09:27:40;10.60;95.80
9973;DHT22;5027;53.560;10.062;2024-03-07T09:30:08;10.70;95.70
9973;DHT22;5027;53.560;10.062;2024-03-07T09:32:42;10.70;95.90
9973;DHT22;5027;53.560;10.062;2024-03-07T09:35:09;10.70;95.90
9973;DHT22;5027;53.560;10.062;2024-03-07T09:37:41;10.70;96.20
9973;DHT22;5027;53.560;10.062;2024-03-07T09:40:11;10.70;96.20
9973;DHT22;5027;53.560;10.062;2024-03-07T09:42:49;10.60;96.40
9973;DHT22;5027;53.560;10.062;2024-03-07T09:45:19;10.60;96.50
9973;DHT22;5027;53.560;10.062;2024-03-07T09:47:49;10.70;96.40
9973;DHT22;5027;53.560;10.062;2024-03-07T09:50:20;10.70;96.30
9973;DHT22;5027;53.560;10.062;2024-03-07T09:52:55;10.70;96.70
9973;DHT22;5027;53.560;10.062;2024-03-07T09:55:22;10.70;96.80
9973;DHT22;5027;53.560;10.062;2024-03-07T09:57:53;10.70;96.60
9973;DHT22;5027;53.560;10.062;2024-03-07T10:00:21;10.90;96.50
9973;DHT22;5027;53.560;10.062;2024-03-07T10:02:56;11.30;96.40
9973;DHT22;5027;53.560;10.062;2024-03-07T10:05:26;11.10;96.50
9973;DHT22;5027;53.560;10.062;2024-03-07T10:07:54;11.00;96.30
9973;DHT22;5027;53.560;10.062;2024-03-07T10:10:21;11.00;96.60
9973;DHT22;5027;53.560;10.062;2024-03-07T10:12:49;11.00;96.60
9973;DHT22;5027;53.560;10.062;2024-03-07T10:15:16;11.00;96.80
9973;DHT22;5027;53.560;10.062;2024-03-07T10:17:44;10.90;96.50
9973;DHT22;5027;53.560;10.062;2024-03-07T10:20:14;10.90;96.60
9973;DHT22;5027;53.560;10.062;2024-03-07T10:22:41;10.90;96.60
9973;DHT22;5027;53.560;10.062;2024-03-07T10:25:08;11.00;96.80
9973;DHT22;5027;53.560;10.062;2024-03-07T10:27:37;11.00;96.60
9973;DHT22;5027;53.560;10.062;2024-03-07T10:30:04;11.00;96.70
9973;DHT22;5027;53.560;10.062;2024-03-07T10:32:34;11.00;97.00
9973;DHT22;5027;53.560;10.062;2024-03-07T10:35:03;11.10;97.20
9973;DHT22;5027;53.560;10.062;2024-03-07T10:37:30;11.00;97.10
9973;DHT22;5027;53.560;10.062;2024-03-07T10:39:57;10.90;97.00
9973;DHT22;5027;53.560;10.062;2024-03-07T10:42:28;10.90;97.10
9973;DHT22;5027;53.560;10.062;2024-03-07T10:45:02;11.00;97.20
9973;DHT22;5027;53.560;10.062;2024-03-07T10:47:30;10.90;97.20
9973;DHT22;5027;53.560;10.062;2024-03-07T10:50:16;11.00;96.80
9973;DHT22;5027;53.560;10.062;2024-03-07T10:52:54;11.00;97.20
9973;DHT22;5027;53.560;10.062;2024-03-07T10:55:40;10.90;97.20
9973;DHT22;5027;53.560;10.062;2024-03-07T10:58:37;11.00;97.20
9973;DHT22;5027;53.560;10.062;2024-03-07T11:01:10;11.10;97.20
9973;DHT22;5027;53.560;10.062;2024-03-07T11:03:39;11.10;96.70
9973;DHT22;5027;53.560;10.062;2024-03-07T11:06:08;11.20;97.20
9973;DHT22;5027;53.560;10.062;2024-03-07T11:08:38;11.20;97.30
9973;DHT22;5027;53.560;10.062;2024-03-07T11:11:05;11.20;97.10
9973;DHT22;5027;53.560;10.062;2024-03-07T11:13:33;11.20;97.30
9973;DHT22;5027;53.560;10.062;2024-03-07T11:16:01;11.10;97.30
9973;DHT22;5027;53.560;10.062;2024-03-07T11:18:29;11.00;97.50
9973;DHT22;5027;53.560;10.062;2024-03-07T11:20:56;11.20;97.30
9973;DHT22;5027;53.560;10.062;2024-03-07T11:23:32;11.20;97.50
9973;DHT22;5027;53.560;10.062;2024-03-07T11:26:10;11.30;97.40
9973;DHT22;5027;53.560;10.062;2024-03-07T11:28:39;11.40;97.40
9973;DHT22;5027;53.560;10.062;2024-03-07T11:31:13;11.40;97.40
9973;DHT22;5027;53.560;10.062;2024-03-07T11:33:41;11.30;97.40
9973;DHT22;5027;53.560;10.062;2024-03-07T11:36:09;11.30;97.40
9973;DHT22;5027;53.560;10.062;2024-03-07T11:38:47;11.30;97.50
9973;DHT22;5027;53.560;10.062;2024-03-07T11:41:19;11.30;97.70
9973;DHT22;5027;53.560;10.062;2024-03-07T11:43:46;11.30;97.60
9973;DHT22;5027;53.560;10.062;2024-03-07T11:46:13;11.40;97.70
9973;DHT22;5027;53.560;10.062;2024-03-07T11:48:44;11.40;97.70
9973;DHT22;5027;53.560;10.062;2024-03-07T11:51:17;11.40;97.80
9973;DHT22;5027;53.560;10.062;2024-03-07T11:53:44;11.40;97.80
9973;DHT22;5027;53.560;10.062;2024-03-07T11:56:15;11.40;97.90
9973;DHT22;5027;53.560;10.062;2024-03-07T11:58:44;11.40;97.70
9973;DHT22;5027;53.560;10.062;2024-03-07T12:01:14;11.50;97.70
9973;DHT22;5027;53.560;10.062;2024-03-07T12:03:44;11.60;97.50
9973;DHT22;5027;53.560;10.062;2024-03-07T12:06:11;11.60;97.60
9973;DHT22;5027;53.560;10.062;2024-03-07T12:08:40;11.60;97.50
9973;DHT22;5027;53.560;10.062;2024-03-07T12:11:08;11.60;97.50
9973;DHT22;5027;53.560;10.062;2024-03-07T12:13:39;11.60;97.50
9973;DHT22;5027;53.560;10.062;2024-03-07T12:16:07;11.70;97.60
9973;DHT22;5027;53.560;10.062;2024-03-07T12:18:35;11.70;97.50
9973;DHT22;5027;53.560;10.062;2024-03-07T12:21:04;11.60;97.50
9973;DHT22;5027;53.560;10.062;2024-03-07T12:23:38;11.50;97.80
9973;DHT22;5027;53.560;10.062;2024-03-07T12:26:05;11.40;97.80
9973;DHT22;5027;53.560;10.062;2024-03-07T12:28:32;11.30;97.90
9973;DHT22;5027;53.560;10.062;2024-03-07T12:31:05;11.30;98.00
9973;DHT22;5027;53.560;10.062;2024-03-07T12:33:42;11.30;98.00
9973;DHT22;5027;53.560;10.062;2024-03-07T12:36:13;11.30;97.90
9973;DHT22;5027;53.560;10.062;2024-03-07T12:38:40;11.30;97.90
9973;DHT22;5027;53.560;10.062;2024-03-07T12:41:09;11.30;98.20
9973;DHT22;5027;53.560;10.062;2024-03-07T12:43:44;11.30;98.00
9973;DHT22;5027;53.560;10.062;2024-03-07T12:46:13;11.40;98.00
9973;DHT22;5027;53.560;10.062;2024-03-07T12:48:42;11.40;98.10
9973;DHT22;5027;53.560;10.062;2024-03-07T12:51:11;11.50;97.90
9973;DHT22;5027;53.560;10.062;2024-03-07T12:53:43;11.40;97.80
9973;DHT22;5027;53.560;10.062;2024-03-07T12:56:10;11.50;97.80
9973;DHT22;5027;53.560;10.062;2024-03-07T12:58:37;11.50;97.80
9973;DHT22;5027;53.560;10.062;2024-03-07T13:01:04;11.50;97.80
9973;DHT22;5027;53.560;10.062;2024-03-07T13:03:31;11.50;97.70
9973;DHT22;5027;53.560;10.062;2024-03-07T13:05:58;11.50;98.00
9973;DHT22;5027;53.560;10.062;2024-03-07T13:08:28;11.50;97.70
9973;DHT22;5027;53.560;10.062;2024-03-07T13:10:56;11.50;97.70
9973;DHT22;5027;53.560;10.062;2024-03-07T13:13:25;11.50;97.80
9973;DHT22;5027;53.560;10.062;2024-03-07T13:15:52;11.50;97.90
9973;DHT22;5027;53.560;10.062;2024-03-07T13:18:21;11.50;97.80
9973;DHT22;5027;53.560;10.062;2024-03-07T13:20:48;11.50;97.80
9973;DHT22;5027;53.560;10.062;2024-03-07T13:23:15;11.50;97.70
9973;DHT22;5027;53.560;10.062;2024-03-07T13:25:42;11.50;97.50
9973;DHT22;5027;53.560;10.062;2024-03-07T13:28:12;11.50;97.40
9973;DHT22;5027;53.560;10.062;2024-03-07T13:30:44;11.50;97.50
9973;DHT22;5027;53.560;10.062;2024-03-07T13:33:15;11.50;97.20
9973;DHT22;5027;53.560;10.062;2024-03-07T13:35:43;11.50;97.30
9973;DHT22;5027;53.560;10.062;2024-03-07T13:38:10;11.50;97.40
9973;DHT22;5027;53.560;10.062;2024-03-07T13:40:37;11.50;97.20
9973;DHT22;5027;53.560;10.062;2024-03-07T13:43:07;11.50;97.30
9973;DHT22;5027;53.560;10.062;2024-03-07T13:45:35;11.50;97.30
9973;DHT22;5027;53.560;10.062;2024-03-07T13:48:10;11.60;97.50
9973;DHT22;5027;53.560;10.062;2024-03-07T13:50:40;11.60;97.50
9973;DHT22;5027;53.560;10.062;2024-03-07T13:53:27;11.60;97.50
9973;DHT22;5027;53.560;10.062;2024-03-07T14:11:23;11.60;96.60
9973;DHT22;5027;53.560;10.062;2024-03-07T14:14:30;11.60;96.70
9973;DHT22;5027;53.560;10.062;2024-03-07T14:20:30;11.70;96.70
9973;DHT22;5027;53.560;10.062;2024-03-07T14:29:05;11.90;97.10
9973;DHT22;5027;53.560;10.062;2024-03-07T14:31:39;12.00;96.60
9973;DHT22;5027;53.560;10.062;2024-03-07T14:34:19;12.20;97.00
9973;DHT22;5027;53.560;10.062;2024-03-07T14:36:53;12.20;96.20
9973;DHT22;5027;53.560;10.062;2024-03-07T14:39:23;12.30;96.00
9973;DHT22;5027;53.560;10.062;2024-03-07T14:41:56;12.30;95.80
9973;DHT22;5027;53.560;10.062;2024-03-07T14:44:24;12.30;95.80
9973;DHT22;5027;53.560;10.062;2024-03-07T14:47:03;12.20;95.90
9973;DHT22;5027;53.560;10.062;2024-03-07T14:49:34;12.20;96.00
9973;DHT22;5027;53.560;10.062;2024-03-07T14:52:01;12.20;95.60
9973;DHT22;5027;53.560;10.062;2024-03-07T14:54:29;12.10;95.40
9973;DHT22;5027;53.560;10.062;2024-03-07T14:56:57;12.10;95.40
9973;DHT22;5027;53.560;10.062;2024-03-07T14:59:24;12.20;95.50
9973;DHT22;5027;53.560;10.062;2024-03-07T15:01:51;12.30;95.30
9973;DHT22;5027;53.560;10.062;2024-03-07T15:04:19;12.50;95.00
9973;DHT22;5027;53.560;10.062;2024-03-07T15:06:47;12.60;94.90
9973;DHT22;5027;53.560;10.062;2024-03-07T15:09:14;12.70;94.60
9973;DHT22;5027;53.560;10.062;2024-03-07T15:11:41;12.80;94.50
9973;DHT22;5027;53.560;10.062;2024-03-07T15:14:09;12.80;94.70
9973;DHT22;5027;53.560;10.062;2024-03-07T15:16:36;12.90;94.90
9973;DHT22;5027;53.560;10.062;2024-03-07T15:19:08;12.90;94.70
9973;DHT22;5027;53.560;10.062;2024-03-07T15:21:35;12.90;94.20
9973;DHT22;5027;53.560;10.062;2024-03-07T15:24:04;12.90;94.20
9973;DHT22;5027;53.560;10.062;2024-03-07T15:26:31;13.00;94.00
9973;DHT22;5027;53.560;10.062;2024-03-07T15:28:58;12.90;93.90
9973;DHT22;5027;53.560;10.062;2024-03-07T15:31:27;13.00;93.80
9973;DHT22;5027;53.560;10.062;2024-03-07T15:33:54;12.90;93.80
9973;DHT22;5027;53.560;10.062;2024-03-07T15:36:22;12.90;93.40
9973;DHT22;5027;53.560;10.062;2024-03-07T15:38:49;13.00;93.70
9973;DHT22;5027;53.560;10.062;2024-03-07T15:41:16;12.90;93.40
9973;DHT22;5027;53.560;10.062;2024-03-07T15:43:43;12.90;93.70
9973;DHT22;5027;53.560;10.062;2024-03-07T15:46:16;12.90;93.80
9973;DHT22;5027;53.560;10.062;2024-03-07T15:48:45;12.90;93.90
9973;DHT22;5027;53.560;10.062;2024-03-07T15:51:15;12.80;93.90
9973;DHT22;5027;53.560;10.062;2024-03-07T15:53:42;12.70;94.00
9973;DHT22;5027;53.560;10.062;2024-03-07T15:56:09;12.70;94.00
9973;DHT22;5027;53.560;10.062;2024-03-07T15:58:37;12.70;93.80
9973;DHT22;5027;53.560;10.062;2024-03-07T16:01:04;12.70;93.90
9973;DHT22;5027;53.560;10.062;2024-03-07T16:03:32;12.60;93.70
9973;DHT22;5027;53.560;10.062;2024-03-07T16:05:59;12.60;94.10
9973;DHT22;5027;53.560;10.062;2024-03-07T16:08:26;12.60;93.70
9973;DHT22;5027;53.560;10.062;2024-03-07T16:10:52;12.50;93.90
9973;DHT22;5027;53.560;10.062;2024-03-07T16:13:19;12.50;93.90
9973;DHT22;5027;53.560;10.062;2024-03-07T16:15:46;12.40;94.10
9973;DHT22;5027;53.560;10.062;2024-03-07T16:18:14;12.40;94.20